Terminal Aerodrome Forecast
Issued by NWS

Home | Current Version | Previous Version | Text Only | Print | Product List | Glossary On
Versions: 1 2 3 4 5 6 7 8 9 10 11 12 13 14 15 16 17 18
000
FTUS41 KBGM 192345
TAFELM
TAF
KELM 192345Z 2000/2024 13008KT P6SM OVC200
     FM200400 13010G20KT P6SM OVC100 WS020/16055KT
     FM200700 13010G20KT P6SM -RA SCT025 OVC040 WS020/16055KT
     FM201400 16012G22KT P6SM SCT025 OVC045
      TEMPO 2020/2024 5SM -SHRA BR OVC025=

USA.gov is the U.S. government's official web portal to all federal, state and local government web resources and services.